sensor_id;sensor_type;location;lat;lon;timestamp;temperature;humidity
20174;DHT22;10246;50.620;7.232;2023-01-29T00:01:32;-0.10;5.40
20174;DHT22;10246;50.620;7.232;2023-01-29T00:03:59;-0.10;5.70
20174;DHT22;10246;50.620;7.232;2023-01-29T00:06:26;-0.10;5.70
20174;DHT22;10246;50.620;7.232;2023-01-29T00:08:54;-0.20;5.90
20174;DHT22;10246;50.620;7.232;2023-01-29T00:11:21;-0.20;5.80
20174;DHT22;10246;50.620;7.232;2023-01-29T00:13:50;-0.20;5.80
20174;DHT22;10246;50.620;7.232;2023-01-29T00:16:17;-0.20;6.00
20174;DHT22;10246;50.620;7.232;2023-01-29T00:18:44;-0.20;5.90
20174;DHT22;10246;50.620;7.232;2023-01-29T00:21:12;-0.20;5.60
20174;DHT22;10246;50.620;7.232;2023-01-29T00:23:40;-0.30;5.50
20174;DHT22;10246;50.620;7.232;2023-01-29T00:26:08;-0.20;5.90
20174;DHT22;10246;50.620;7.232;2023-01-29T00:28:35;-0.20;5.90
20174;DHT22;10246;50.620;7.232;2023-01-29T00:31:06;-0.30;6.10
20174;DHT22;10246;50.620;7.232;2023-01-29T00:33:33;-0.30;5.60
20174;DHT22;10246;50.620;7.232;2023-01-29T00:36:01;-0.30;5.30
20174;DHT22;10246;50.620;7.232;2023-01-29T00:38:28;-0.30;5.70
20174;DHT22;10246;50.620;7.232;2023-01-29T00:40:55;-0.30;5.90
20174;DHT22;10246;50.620;7.232;2023-01-29T00:43:41;-0.40;6.00
20174;DHT22;10246;50.620;7.232;2023-01-29T00:46:25;-0.40;5.30
20174;DHT22;10246;50.620;7.232;2023-01-29T00:48:52;-0.50;5.40
20174;DHT22;10246;50.620;7.232;2023-01-29T00:51:18;-0.60;6.30
20174;DHT22;10246;50.620;7.232;2023-01-29T00:53:45;-0.60;6.60
20174;DHT22;10246;50.620;7.232;2023-01-29T00:56:12;-0.60;6.60
20174;DHT22;10246;50.620;7.232;2023-01-29T00:58:38;-0.60;6.60
20174;DHT22;10246;50.620;7.232;2023-01-29T01:01:07;-0.60;6.70
20174;DHT22;10246;50.620;7.232;2023-01-29T01:03:34;-0.60;6.60
20174;DHT22;10246;50.620;7.232;2023-01-29T01:06:07;-0.70;6.70
20174;DHT22;10246;50.620;7.232;2023-01-29T01:08:35;-0.70;7.00
20174;DHT22;10246;50.620;7.232;2023-01-29T01:11:22;-0.60;7.00
20174;DHT22;10246;50.620;7.232;2023-01-29T01:13:49;-0.60;6.60
20174;DHT22;10246;50.620;7.232;2023-01-29T01:16:17;-0.60;6.60
20174;DHT22;10246;50.620;7.232;2023-01-29T01:18:45;-0.60;6.60
20174;DHT22;10246;50.620;7.232;2023-01-29T01:21:12;-0.60;6.60
20174;DHT22;10246;50.620;7.232;2023-01-29T01:23:38;-0.60;6.60
20174;DHT22;10246;50.620;7.232;2023-01-29T01:26:08;-0.60;6.60
20174;DHT22;10246;50.620;7.232;2023-01-29T01:28:35;-0.60;6.60
20174;DHT22;10246;50.620;7.232;2023-01-29T01:31:08;-0.60;6.60
20174;DHT22;10246;50.620;7.232;2023-01-29T01:33:36;-0.70;6.50
20174;DHT22;10246;50.620;7.232;2023-01-29T01:36:04;-0.70;6.50
20174;DHT22;10246;50.620;7.232;2023-01-29T01:38:35;-0.70;6.50
20174;DHT22;10246;50.620;7.232;2023-01-29T01:41:09;-0.70;6.50
20174;DHT22;10246;50.620;7.232;2023-01-29T01:43:51;-0.70;6.50
20174;DHT22;10246;50.620;7.232;2023-01-29T01:46:18;-0.70;6.50
20174;DHT22;10246;50.620;7.232;2023-01-29T01:48:50;-0.70;6.50
20174;DHT22;10246;50.620;7.232;2023-01-29T01:51:18;-0.70;6.50
20174;DHT22;10246;50.620;7.232;2023-01-29T01:53:50;-0.80;6.50
20174;DHT22;10246;50.620;7.232;2023-01-29T01:56:21;-0.70;6.50
20174;DHT22;10246;50.620;7.232;2023-01-29T01:58:51;-0.80;6.50
20174;DHT22;10246;50.620;7.232;2023-01-29T02:01:22;-0.80;6.50
20174;DHT22;10246;50.620;7.232;2023-01-29T02:03:56;-0.80;6.50
20174;DHT22;10246;50.620;7.232;2023-01-29T02:06:42;-0.80;6.50
20174;DHT22;10246;50.620;7.232;2023-01-29T02:09:31;-0.80;6.50
20174;DHT22;10246;50.620;7.232;2023-01-29T02:12:01;-0.80;6.10
20174;DHT22;10246;50.620;7.232;2023-01-29T02:14:28;-0.90;6.90
20174;DHT22;10246;50.620;7.232;2023-01-29T02:16:56;-0.90;6.00
20174;DHT22;10246;50.620;7.232;2023-01-29T02:19:35;-1.00;6.30
20174;DHT22;10246;50.620;7.232;2023-01-29T02:28:29;-1.10;6.30
20174;DHT22;10246;50.620;7.232;2023-01-29T02:31:01;-1.10;6.30
20174;DHT22;10246;50.620;7.232;2023-01-29T02:33:40;-1.10;6.80
20174;DHT22;10246;50.620;7.232;2023-01-29T02:36:18;-1.10;7.10
20174;DHT22;10246;50.620;7.232;2023-01-29T02:38:57;-1.10;6.70
20174;DHT22;10246;50.620;7.232;2023-01-29T02:41:29;-1.10;6.30
20174;DHT22;10246;50.620;7.232;2023-01-29T02:44:02;-1.20;6.20
20174;DHT22;10246;50.620;7.232;2023-01-29T02:46:34;-1.20;6.30
20174;DHT22;10246;50.620;7.232;2023-01-29T02:49:08;-1.20;6.70
20174;DHT22;10246;50.620;7.232;2023-01-29T02:51:40;-1.20;6.90
20174;DHT22;10246;50.620;7.232;2023-01-29T02:54:15;-1.30;6.70
20174;DHT22;10246;50.620;7.232;2023-01-29T02:56:49;-1.30;6.90
20174;DHT22;10246;50.620;7.232;2023-01-29T02:59:23;-1.30;7.00
20174;DHT22;10246;50.620;7.232;2023-01-29T03:01:52;-1.40;7.10
20174;DHT22;10246;50.620;7.232;2023-01-29T03:04:24;-1.30;7.40
20174;DHT22;10246;50.620;7.232;2023-01-29T03:06:54;-1.40;7.80
20174;DHT22;10246;50.620;7.232;2023-01-29T03:09:25;-1.40;8.20
20174;DHT22;10246;50.620;7.232;2023-01-29T03:11:57;-1.30;8.60
20174;DHT22;10246;50.620;7.232;2023-01-29T03:14:33;-1.30;8.30
20174;DHT22;10246;50.620;7.232;2023-01-29T03:17:29;-1.30;8.20
20174;DHT22;10246;50.620;7.232;2023-01-29T03:20:01;-1.30;7.60
20174;DHT22;10246;50.620;7.232;2023-01-29T03:22:29;-1.30;7.40
20174;DHT22;10246;50.620;7.232;2023-01-29T03:24:57;-1.30;7.50
20174;DHT22;10246;50.620;7.232;2023-01-29T03:27:45;-1.40;7.40
20174;DHT22;10246;50.620;7.232;2023-01-29T03:30:33;-1.40;7.20
20174;DHT22;10246;50.620;7.232;2023-01-29T03:33:20;-1.40;7.20
20174;DHT22;10246;50.620;7.232;2023-01-29T03:35:52;-1.40;6.80
20174;DHT22;10246;50.620;7.232;2023-01-29T03:38:21;-1.50;7.00
20174;DHT22;10246;50.620;7.232;2023-01-29T03:40:58;-1.40;7.20
20174;DHT22;10246;50.620;7.232;2023-01-29T03:43:31;-1.40;7.00
20174;DHT22;10246;50.620;7.232;2023-01-29T03:46:04;-1.40;7.20
20174;DHT22;10246;50.620;7.232;2023-01-29T03:48:35;-1.40;7.20
20174;DHT22;10246;50.620;7.232;2023-01-29T03:51:12;-1.40;7.40
20174;DHT22;10246;50.620;7.232;2023-01-29T03:53:42;-1.40;7.20
20174;DHT22;10246;50.620;7.232;2023-01-29T03:56:20;-1.40;7.40
20174;DHT22;10246;50.620;7.232;2023-01-29T03:58:56;-1.40;7.60
20174;DHT22;10246;50.620;7.232;2023-01-29T04:01:29;-1.40;7.80
20174;DHT22;10246;50.620;7.232;2023-01-29T04:04:02;-1.40;8.90
20174;DHT22;10246;50.620;7.232;2023-01-29T04:06:33;-1.40;8.70
20174;DHT22;10246;50.620;7.232;2023-01-29T04:09:04;-1.40;8.70
20174;DHT22;10246;50.620;7.232;2023-01-29T04:11:35;-1.30;8.60
20174;DHT22;10246;50.620;7.232;2023-01-29T04:14:03;-1.30;8.70
20174;DHT22;10246;50.620;7.232;2023-01-29T04:16:35;-1.30;9.20
20174;DHT22;10246;50.620;7.232;2023-01-29T04:19:04;-1.30;9.00
20174;DHT22;10246;50.620;7.232;2023-01-29T04:21:33;-1.30;8.40
20174;DHT22;10246;50.620;7.232;2023-01-29T04:24:02;-1.40;8.10
20174;DHT22;10246;50.620;7.232;2023-01-29T04:26:41;-1.40;7.90
20174;DHT22;10246;50.620;7.232;2023-01-29T04:29:27;-1.50;8.40
20174;DHT22;10246;50.620;7.232;2023-01-29T04:32:01;-1.50;8.80
20174;DHT22;10246;50.620;7.232;2023-01-29T04:34:38;-1.40;9.20
20174;DHT22;10246;50.620;7.232;2023-01-29T04:37:13;-1.40;9.30
20174;DHT22;10246;50.620;7.232;2023-01-29T04:39:47;-1.40;9.90
20174;DHT22;10246;50.620;7.232;2023-01-29T04:42:20;-1.30;10.10
20174;DHT22;10246;50.620;7.232;2023-01-29T04:44:53;-1.30;10.30
20174;DHT22;10246;50.620;7.232;2023-01-29T04:47:31;-1.20;10.30
20174;DHT22;10246;50.620;7.232;2023-01-29T04:50:09;-1.20;10.50
20174;DHT22;10246;50.620;7.232;2023-01-29T04:52:45;-1.20;10.20
20174;DHT22;10246;50.620;7.232;2023-01-29T04:55:18;-1.20;10.10
20174;DHT22;10246;50.620;7.232;2023-01-29T04:57:49;-1.10;10.50
20174;DHT22;10246;50.620;7.232;2023-01-29T05:00:19;-1.20;10.10
20174;DHT22;10246;50.620;7.232;2023-01-29T05:02:48;-1.10;10.50
20174;DHT22;10246;50.620;7.232;2023-01-29T05:05:17;-1.10;10.50
20174;DHT22;10246;50.620;7.232;2023-01-29T05:07:45;-1.10;10.50
20174;DHT22;10246;50.620;7.232;2023-01-29T05:10:14;-1.00;10.40
20174;DHT22;10246;50.620;7.232;2023-01-29T05:12:45;-1.00;10.40
20174;DHT22;10246;50.620;7.232;2023-01-29T05:15:16;-1.00;9.90
20174;DHT22;10246;50.620;7.232;2023-01-29T05:17:44;-0.90;9.40
20174;DHT22;10246;50.620;7.232;2023-01-29T05:20:12;-1.00;9.30
20174;DHT22;10246;50.620;7.232;2023-01-29T05:22:40;-0.90;9.30
20174;DHT22;10246;50.620;7.232;2023-01-29T05:25:19;-1.00;9.90
20174;DHT22;10246;50.620;7.232;2023-01-29T05:27:48;-1.00;10.80
20174;DHT22;10246;50.620;7.232;2023-01-29T05:30:31;-1.00;11.20
20174;DHT22;10246;50.620;7.232;2023-01-29T05:32:57;-0.90;11.20
20174;DHT22;10246;50.620;7.232;2023-01-29T05:35:26;-0.90;11.30
20174;DHT22;10246;50.620;7.232;2023-01-29T05:37:54;-0.90;11.20
20174;DHT22;10246;50.620;7.232;2023-01-29T05:40:22;-0.90;11.10
20174;DHT22;10246;50.620;7.232;2023-01-29T05:42:49;-0.90;11.20
20174;DHT22;10246;50.620;7.232;2023-01-29T05:45:16;-0.90;10.90
20174;DHT22;10246;50.620;7.232;2023-01-29T05:47:43;-0.80;10.90
20174;DHT22;10246;50.620;7.232;2023-01-29T05:50:10;-0.70;10.30
20174;DHT22;10246;50.620;7.232;2023-01-29T05:52:39;-0.80;10.50
20174;DHT22;10246;50.620;7.232;2023-01-29T05:55:07;-0.70;10.60
20174;DHT22;10246;50.620;7.232;2023-01-29T05:57:38;-0.70;10.50
20174;DHT22;10246;50.620;7.232;2023-01-29T06:00:06;-0.70;10.20
20174;DHT22;10246;50.620;7.232;2023-01-29T06:02:33;-0.70;11.10
20174;DHT22;10246;50.620;7.232;2023-01-29T06:05:00;-0.70;11.10
20174;DHT22;10246;50.620;7.232;2023-01-29T06:07:27;-0.70;11.00
20174;DHT22;10246;50.620;7.232;2023-01-29T06:09:57;-0.70;11.20
20174;DHT22;10246;50.620;7.232;2023-01-29T06:12:25;-0.70;11.20
20174;DHT22;10246;50.620;7.232;2023-01-29T06:14:52;-0.70;11.30
20174;DHT22;10246;50.620;7.232;2023-01-29T06:17:19;-0.70;11.40
20174;DHT22;10246;50.620;7.232;2023-01-29T06:19:46;-0.60;11.40
20174;DHT22;10246;50.620;7.232;2023-01-29T06:22:13;-0.60;10.90
20174;DHT22;10246;50.620;7.232;2023-01-29T06:24:39;-0.60;10.80
20174;DHT22;10246;50.620;7.232;2023-01-29T06:27:08;-0.60;11.00
20174;DHT22;10246;50.620;7.232;2023-01-29T06:29:34;-0.60;11.30
20174;DHT22;10246;50.620;7.232;2023-01-29T06:32:01;-0.60;11.50
20174;DHT22;10246;50.620;7.232;2023-01-29T06:34:28;-0.60;11.20
20174;DHT22;10246;50.620;7.232;2023-01-29T06:36:55;-0.50;11.50
20174;DHT22;10246;50.620;7.232;2023-01-29T06:39:21;-0.50;10.40
20174;DHT22;10246;50.620;7.232;2023-01-29T06:41:48;-0.50;10.60
20174;DHT22;10246;50.620;7.232;2023-01-29T06:44:16;-0.40;10.50
20174;DHT22;10246;50.620;7.232;2023-01-29T06:46:43;-0.50;9.70
20174;DHT22;10246;50.620;7.232;2023-01-29T06:49:10;-0.50;9.70
20174;DHT22;10246;50.620;7.232;2023-01-29T06:51:37;-0.50;10.00
20174;DHT22;10246;50.620;7.232;2023-01-29T06:54:03;-0.50;10.00
20174;DHT22;10246;50.620;7.232;2023-01-29T06:56:32;-0.40;10.10
20174;DHT22;10246;50.620;7.232;2023-01-29T06:58:59;-0.40;10.00
20174;DHT22;10246;50.620;7.232;2023-01-29T07:01:27;-0.40;9.70
20174;DHT22;10246;50.620;7.232;2023-01-29T07:03:54;-0.40;9.70
20174;DHT22;10246;50.620;7.232;2023-01-29T07:06:26;-0.30;9.20
20174;DHT22;10246;50.620;7.232;2023-01-29T07:08:53;-0.30;9.00
20174;DHT22;10246;50.620;7.232;2023-01-29T07:11:20;-0.30;8.80
20174;DHT22;10246;50.620;7.232;2023-01-29T07:13:47;-0.30;8.70
20174;DHT22;10246;50.620;7.232;2023-01-29T07:16:13;-0.30;8.60
20174;DHT22;10246;50.620;7.232;2023-01-29T07:18:42;-0.30;8.70
20174;DHT22;10246;50.620;7.232;2023-01-29T07:21:08;-0.30;9.00
20174;DHT22;10246;50.620;7.232;2023-01-29T07:23:35;-0.40;9.00
20174;DHT22;10246;50.620;7.232;2023-01-29T07:26:03;-0.40;9.20
20174;DHT22;10246;50.620;7.232;2023-01-29T07:28:30;-0.40;9.30
20174;DHT22;10246;50.620;7.232;2023-01-29T07:30:57;-0.30;9.40
20174;DHT22;10246;50.620;7.232;2023-01-29T07:33:24;-0.40;9.20
20174;DHT22;10246;50.620;7.232;2023-01-29T07:35:53;-0.40;9.40
20174;DHT22;10246;50.620;7.232;2023-01-29T07:38:20;-0.40;9.40
20174;DHT22;10246;50.620;7.232;2023-01-29T07:40:47;-0.40;9.20
20174;DHT22;10246;50.620;7.232;2023-01-29T07:43:15;-0.40;9.20
20174;DHT22;10246;50.620;7.232;2023-01-29T07:45:41;-0.40;8.80
20174;DHT22;10246;50.620;7.232;2023-01-29T07:48:10;-0.40;8.10
20174;DHT22;10246;50.620;7.232;2023-01-29T07:50:38;-0.40;8.30
20174;DHT22;10246;50.620;7.232;2023-01-29T07:53:11;-0.50;8.60
20174;DHT22;10246;50.620;7.232;2023-01-29T07:55:38;-0.50;8.70
20174;DHT22;10246;50.620;7.232;2023-01-29T07:58:04;-0.50;8.60
20174;DHT22;10246;50.620;7.232;2023-01-29T08:00:31;-0.50;8.80
20174;DHT22;10246;50.620;7.232;2023-01-29T08:03:02;-0.40;9.00
20174;DHT22;10246;50.620;7.232;2023-01-29T08:05:29;-0.40;8.80
20174;DHT22;10246;50.620;7.232;2023-01-29T08:07:56;-0.30;8.80
20174;DHT22;10246;50.620;7.232;2023-01-29T08:10:24;-0.30;8.30
20174;DHT22;10246;50.620;7.232;2023-01-29T08:12:55;-0.30;7.90
20174;DHT22;10246;50.620;7.232;2023-01-29T08:15:22;-0.30;7.30
20174;DHT22;10246;50.620;7.232;2023-01-29T08:17:49;-0.20;7.10
20174;DHT22;10246;50.620;7.232;2023-01-29T08:20:16;-0.20;7.40
20174;DHT22;10246;50.620;7.232;2023-01-29T08:22:43;-0.30;7.70
20174;DHT22;10246;50.620;7.232;2023-01-29T08:25:10;-0.20;7.80
20174;DHT22;10246;50.620;7.232;2023-01-29T08:27:38;-0.20;7.30
20174;DHT22;10246;50.620;7.232;2023-01-29T08:30:06;-0.10;6.90
20174;DHT22;10246;50.620;7.232;2023-01-29T08:32:33;-0.10;6.90
20174;DHT22;10246;50.620;7.232;2023-01-29T08:35:00;-0.10;6.90
20174;DHT22;10246;50.620;7.232;2023-01-29T08:37:27;0.00;7.00
20174;DHT22;10246;50.620;7.232;2023-01-29T08:39:54;-0.10;6.90
20174;DHT22;10246;50.620;7.232;2023-01-29T08:42:20;0.00;7.00
20174;DHT22;10246;50.620;7.232;2023-01-29T08:44:49;0.00;6.80
20174;DHT22;10246;50.620;7.232;2023-01-29T08:47:15;0.00;6.90
20174;DHT22;10246;50.620;7.232;2023-01-29T08:49:42;0.10;7.00
20174;DHT22;10246;50.620;7.232;2023-01-29T08:52:09;0.20;5.00
20174;DHT22;10246;50.620;7.232;2023-01-29T08:54:36;0.20;4.00
20174;DHT22;10246;50.620;7.232;2023-01-29T08:57:03;0.30;3.10
20174;DHT22;10246;50.620;7.232;2023-01-29T08:59:29;0.30;2.10
20174;DHT22;10246;50.620;7.232;2023-01-29T09:01:57;0.30;1.60
20174;DHT22;10246;50.620;7.232;2023-01-29T09:04:24;0.30;1.80
20174;DHT22;10246;50.620;7.232;2023-01-29T09:06:51;0.30;2.60
20174;DHT22;10246;50.620;7.232;2023-01-29T09:09:18;0.30;1.90
20174;DHT22;10246;50.620;7.232;2023-01-29T09:11:45;0.30;1.80
20174;DHT22;10246;50.620;7.232;2023-01-29T09:14:11;0.40;1.50
20174;DHT22;10246;50.620;7.232;2023-01-29T09:16:39;0.40;1.80
20174;DHT22;10246;50.620;7.232;2023-01-29T09:19:07;0.40;1.70
20174;DHT22;10246;50.620;7.232;2023-01-29T09:21:34;0.40;1.60
20174;DHT22;10246;50.620;7.232;2023-01-29T09:24:01;0.40;2.20
20174;DHT22;10246;50.620;7.232;2023-01-29T09:26:28;0.50;1.90
20174;DHT22;10246;50.620;7.232;2023-01-29T09:28:55;0.50;2.00
20174;DHT22;10246;50.620;7.232;2023-01-29T09:31:21;0.50;2.10
20174;DHT22;10246;50.620;7.232;2023-01-29T09:33:48;0.60;1.30
20174;DHT22;10246;50.620;7.232;2023-01-29T09:36:16;0.50;1.40
20174;DHT22;10246;50.620;7.232;2023-01-29T09:38:43;0.50;1.60
20174;DHT22;10246;50.620;7.232;2023-01-29T09:41:22;0.60;2.20
20174;DHT22;10246;50.620;7.232;2023-01-29T09:43:53;0.70;1.70
20174;DHT22;10246;50.620;7.232;2023-01-29T09:46:26;0.80;1.80
20174;DHT22;10246;50.620;7.232;2023-01-29T09:49:00;1.00;1.50
20174;DHT22;10246;50.620;7.232;2023-01-29T09:51:33;1.20;1.00
20174;DHT22;10246;50.620;7.232;2023-01-29T09:54:10;1.30;1.00
20174;DHT22;10246;50.620;7.232;2023-01-29T09:56:38;1.50;1.00
20174;DHT22;10246;50.620;7.232;2023-01-29T09:59:05;1.60;1.00
20174;DHT22;10246;50.620;7.232;2023-01-29T10:01:37;1.70;1.00
20174;DHT22;10246;50.620;7.232;2023-01-29T10:07:17;1.80;1.00
20174;DHT22;10246;50.620;7.232;2023-01-29T10:10:05;1.70;1.00
20174;DHT22;10246;50.620;7.232;2023-01-29T10:12:56;1.70;1.00
20174;DHT22;10246;50.620;7.232;2023-01-29T10:15:33;1.70;1.00
20174;DHT22;10246;50.620;7.232;2023-01-29T10:18:14;1.70;1.00
20174;DHT22;10246;50.620;7.232;2023-01-29T10:20:52;1.70;1.00
20174;DHT22;10246;50.620;7.232;2023-01-29T10:23:26;1.70;1.00
20174;DHT22;10246;50.620;7.232;2023-01-29T10:25:53;1.70;1.00
20174;DHT22;10246;50.620;7.232;2023-01-29T10:28:24;1.70;1.00
20174;DHT22;10246;50.620;7.232;2023-01-29T10:30:56;1.70;1.00
20174;DHT22;10246;50.620;7.232;2023-01-29T10:33:29;1.80;1.00
20174;DHT22;10246;50.620;7.232;2023-01-29T10:36:02;1.70;1.00
20174;DHT22;10246;50.620;7.232;2023-01-29T10:38:37;1.60;1.00
20174;DHT22;10246;50.620;7.232;2023-01-29T10:41:16;1.60;1.00
20174;DHT22;10246;50.620;7.232;2023-01-29T10:44:05;1.60;1.00
20174;DHT22;10246;50.620;7.232;2023-01-29T10:46:44;1.60;1.00
20174;DHT22;10246;50.620;7.232;2023-01-29T10:49:24;1.70;1.00
20174;DHT22;10246;50.620;7.232;2023-01-29T10:52:06;1.70;1.00
20174;DHT22;10246;50.620;7.232;2023-01-29T10:54:48;1.90;1.00
20174;DHT22;10246;50.620;7.232;2023-01-29T10:57:25;2.00;1.00
20174;DHT22;10246;50.620;7.232;2023-01-29T11:00:06;2.20;1.00
20174;DHT22;10246;50.620;7.232;2023-01-29T11:02:36;2.20;1.00
20174;DHT22;10246;50.620;7.232;2023-01-29T11:05:02;2.30;1.00
20174;DHT22;10246;50.620;7.232;2023-01-29T11:07:30;2.30;1.00
20174;DHT22;10246;50.620;7.232;2023-01-29T11:10:02;2.50;1.00
20174;DHT22;10246;50.620;7.232;2023-01-29T11:12:30;2.50;1.00
20174;DHT22;10246;50.620;7.232;2023-01-29T11:15:01;2.70;1.00
20174;DHT22;10246;50.620;7.232;2023-01-29T11:17:29;2.70;1.00
20174;DHT22;10246;50.620;7.232;2023-01-29T11:19:56;2.90;1.00
20174;DHT22;10246;50.620;7.232;2023-01-29T11:22:24;2.90;1.00
20174;DHT22;10246;50.620;7.232;2023-01-29T11:27:47;2.90;1.00
20174;DHT22;10246;50.620;7.232;2023-01-29T11:30:18;2.90;1.00
20174;DHT22;10246;50.620;7.232;2023-01-29T11:32:50;2.90;1.00
20174;DHT22;10246;50.620;7.232;2023-01-29T11:35:22;3.00;1.00
20174;DHT22;10246;50.620;7.232;2023-01-29T11:37:50;3.10;1.00
20174;DHT22;10246;50.620;7.232;2023-01-29T11:40:43;3.10;1.00
20174;DHT22;10246;50.620;7.232;2023-01-29T11:43:20;3.10;1.00
20174;DHT22;10246;50.620;7.232;2023-01-29T11:45:49;3.10;1.00
20174;DHT22;10246;50.620;7.232;2023-01-29T11:48:18;3.20;1.00
20174;DHT22;10246;50.620;7.232;2023-01-29T11:50:51;3.20;1.00
20174;DHT22;10246;50.620;7.232;2023-01-29T11:53:26;3.20;1.00
20174;DHT22;10246;50.620;7.232;2023-01-29T11:55:58;3.30;1.00
20174;DHT22;10246;50.620;7.232;2023-01-29T11:58:28;3.40;1.00
20174;DHT22;10246;50.620;7.232;2023-01-29T12:00:56;3.40;1.00
20174;DHT22;10246;50.620;7.232;2023-01-29T12:03:31;3.50;1.00
20174;DHT22;10246;50.620;7.232;2023-01-29T12:06:01;3.50;1.00
20174;DHT22;10246;50.620;7.232;2023-01-29T12:08:34;3.50;1.00
20174;DHT22;10246;50.620;7.232;2023-01-29T12:11:10;3.60;1.00
20174;DHT22;10246;50.620;7.232;2023-01-29T12:13:40;3.60;1.00
20174;DHT22;10246;50.620;7.232;2023-01-29T12:16:18;3.70;1.00
20174;DHT22;10246;50.620;7.232;2023-01-29T12:18:50;3.60;1.00
20174;DHT22;10246;50.620;7.232;2023-01-29T12:21:23;3.60;1.00
20174;DHT22;10246;50.620;7.232;2023-01-29T12:23:57;3.70;1.00
20174;DHT22;10246;50.620;7.232;2023-01-29T12:26:30;3.70;1.00
20174;DHT22;10246;50.620;7.232;2023-01-29T12:29:20;3.70;1.00
20174;DHT22;10246;50.620;7.232;2023-01-29T12:31:58;3.80;1.00
20174;DHT22;10246;50.620;7.232;2023-01-29T12:34:35;3.70;1.00
20174;DHT22;10246;50.620;7.232;2023-01-29T12:37:10;3.70;1.00
20174;DHT22;10246;50.620;7.232;2023-01-29T12:39:39;3.80;1.00
20174;DHT22;10246;50.620;7.232;2023-01-29T12:42:10;3.80;1.00
20174;DHT22;10246;50.620;7.232;2023-01-29T12:44:43;3.80;1.00
20174;DHT22;10246;50.620;7.232;2023-01-29T12:47:15;3.80;1.00
20174;DHT22;10246;50.620;7.232;2023-01-29T12:49:46;3.80;1.00
20174;DHT22;10246;50.620;7.232;2023-01-29T12:52:19;3.80;1.00
20174;DHT22;10246;50.620;7.232;2023-01-29T12:54:51;3.90;1.00
20174;DHT22;10246;50.620;7.232;2023-01-29T12:57:22;3.90;1.00
20174;DHT22;10246;50.620;7.232;2023-01-29T12:59:54;3.90;1.00
20174;DHT22;10246;50.620;7.232;2023-01-29T13:02:30;4.00;1.00
20174;DHT22;10246;50.620;7.232;2023-01-29T13:05:00;4.00;1.00
20174;DHT22;10246;50.620;7.232;2023-01-29T13:07:32;4.10;1.00
20174;DHT22;10246;50.620;7.232;2023-01-29T13:10:06;4.10;1.00
20174;DHT22;10246;50.620;7.232;2023-01-29T13:12:38;4.10;1.00
20174;DHT22;10246;50.620;7.232;2023-01-29T13:15:14;4.20;1.00
20174;DHT22;10246;50.620;7.232;2023-01-29T13:17:46;4.20;1.00
20174;DHT22;10246;50.620;7.232;2023-01-29T13:20:17;4.20;1.00
20174;DHT22;10246;50.620;7.232;2023-01-29T13:22:47;4.20;1.00
20174;DHT22;10246;50.620;7.232;2023-01-29T13:25:17;4.20;1.00
20174;DHT22;10246;50.620;7.232;2023-01-29T13:27:44;4.20;1.00
20174;DHT22;10246;50.620;7.232;2023-01-29T13:30:26;4.30;1.00
20174;DHT22;10246;50.620;7.232;2023-01-29T13:32:55;4.30;1.00
20174;DHT22;10246;50.620;7.232;2023-01-29T13:35:34;4.40;1.00
20174;DHT22;10246;50.620;7.232;2023-01-29T13:38:04;4.40;1.00
20174;DHT22;10246;50.620;7.232;2023-01-29T13:40:31;4.40;1.00
20174;DHT22;10246;50.620;7.232;2023-01-29T13:43:01;4.60;1.00
20174;DHT22;10246;50.620;7.232;2023-01-29T13:45:33;4.50;1.00
20174;DHT22;10246;50.620;7.232;2023-01-29T13:48:09;4.60;1.00
20174;DHT22;10246;50.620;7.232;2023-01-29T13:50:38;4.60;1.00
20174;DHT22;10246;50.620;7.232;2023-01-29T13:53:08;4.70;1.00
20174;DHT22;10246;50.620;7.232;2023-01-29T13:55:45;4.70;1.00
20174;DHT22;10246;50.620;7.232;2023-01-29T13:58:15;4.80;1.00
20174;DHT22;10246;50.620;7.232;2023-01-29T14:00:48;4.90;1.00
20174;DHT22;10246;50.620;7.232;2023-01-29T14:06:43;4.80;1.00
20174;DHT22;10246;50.620;7.232;2023-01-29T14:09:30;4.80;1.00
20174;DHT22;10246;50.620;7.232;2023-01-29T14:11:57;4.80;1.00
20174;DHT22;10246;50.620;7.232;2023-01-29T14:14:49;4.80;1.00
20174;DHT22;10246;50.620;7.232;2023-01-29T14:17:19;4.70;1.00
20174;DHT22;10246;50.620;7.232;2023-01-29T14:19:48;4.70;1.00
20174;DHT22;10246;50.620;7.232;2023-01-29T14:22:20;4.70;1.00
20174;DHT22;10246;50.620;7.232;2023-01-29T14:24:48;4.80;1.00
20174;DHT22;10246;50.620;7.232;2023-01-29T14:27:19;4.80;1.00
20174;DHT22;10246;50.620;7.232;2023-01-29T14:29:47;4.80;1.00
20174;DHT22;10246;50.620;7.232;2023-01-29T14:32:20;4.80;1.00
20174;DHT22;10246;50.620;7.232;2023-01-29T14:34:50;4.80;1.00
20174;DHT22;10246;50.620;7.232;2023-01-29T14:37:27;4.80;1.00
20174;DHT22;10246;50.620;7.232;2023-01-29T14:39:58;4.70;1.00
20174;DHT22;10246;50.620;7.232;2023-01-29T14:42:27;4.60;1.00
20174;DHT22;10246;50.620;7.232;2023-01-29T14:44:58;4.60;1.00
20174;DHT22;10246;50.620;7.232;2023-01-29T14:47:53;4.60;1.00
20174;DHT22;10246;50.620;7.232;2023-01-29T14:50:47;4.70;1.00
20174;DHT22;10246;50.620;7.232;2023-01-29T14:53:19;4.70;1.00
20174;DHT22;10246;50.620;7.232;2023-01-29T14:55:51;4.70;1.00
20174;DHT22;10246;50.620;7.232;2023-01-29T14:58:24;4.70;1.00
20174;DHT22;10246;50.620;7.232;2023-01-29T15:00:54;4.70;1.00
20174;DHT22;10246;50.620;7.232;2023-01-29T15:03:29;4.60;1.00
20174;DHT22;10246;50.620;7.232;2023-01-29T15:06:00;4.60;1.00
20174;DHT22;10246;50.620;7.232;2023-01-29T15:08:32;4.60;1.00
20174;DHT22;10246;50.620;7.232;2023-01-29T15:11:06;4.50;1.00
20174;DHT22;10246;50.620;7.232;2023-01-29T15:13:54;4.40;1.00
20174;DHT22;10246;50.620;7.232;2023-01-29T15:16:25;4.40;1.00
20174;DHT22;10246;50.620;7.232;2023-01-29T15:19:03;4.40;1.00
20174;DHT22;10246;50.620;7.232;2023-01-29T15:21:33;4.40;1.00
20174;DHT22;10246;50.620;7.232;2023-01-29T15:24:04;4.30;1.00
20174;DHT22;10246;50.620;7.232;2023-01-29T15:26:32;4.30;1.00
20174;DHT22;10246;50.620;7.232;2023-01-29T15:29:01;4.30;1.00
20174;DHT22;10246;50.620;7.232;2023-01-29T15:31:30;4.20;1.00
20174;DHT22;10246;50.620;7.232;2023-01-29T15:34:03;4.20;1.00
20174;DHT22;10246;50.620;7.232;2023-01-29T15:36:32;4.20;1.00
20174;DHT22;10246;50.620;7.232;2023-01-29T15:39:15;4.20;1.00
20174;DHT22;10246;50.620;7.232;2023-01-29T15:41:43;4.10;1.00
20174;DHT22;10246;50.620;7.232;2023-01-29T15:44:13;4.10;1.00
20174;DHT22;10246;50.620;7.232;2023-01-29T15:46:42;4.10;1.00
20174;DHT22;10246;50.620;7.232;2023-01-29T15:49:20;4.10;1.00
20174;DHT22;10246;50.620;7.232;2023-01-29T15:51:54;4.00;1.00
20174;DHT22;10246;50.620;7.232;2023-01-29T15:54:23;4.10;1.00
20174;DHT22;10246;50.620;7.232;2023-01-29T15:56:51;4.00;1.00
20174;DHT22;10246;50.620;7.232;2023-01-29T15:59:21;3.90;1.00
20174;DHT22;10246;50.620;7.232;2023-01-29T16:01:49;3.90;1.00
20174;DHT22;10246;50.620;7.232;2023-01-29T16:04:21;3.80;1.00
20174;DHT22;10246;50.620;7.232;2023-01-29T16:06:50;3.90;1.00
20174;DHT22;10246;50.620;7.232;2023-01-29T16:09:21;3.80;1.00
20174;DHT22;10246;50.620;7.232;2023-01-29T16:11:49;3.70;1.00
20174;DHT22;10246;50.620;7.232;2023-01-29T16:14:20;3.80;1.00
20174;DHT22;10246;50.620;7.232;2023-01-29T16:16:50;3.70;1.00
20174;DHT22;10246;50.620;7.232;2023-01-29T16:19:24;3.80;1.00
20174;DHT22;10246;50.620;7.232;2023-01-29T16:21:55;3.80;1.00
20174;DHT22;10246;50.620;7.232;2023-01-29T16:24:23;3.80;1.00
20174;DHT22;10246;50.620;7.232;2023-01-29T16:26:52;3.80;1.00
20174;DHT22;10246;50.620;7.232;2023-01-29T16:29:27;3.80;1.00
20174;DHT22;10246;50.620;7.232;2023-01-29T16:31:56;3.80;1.00
20174;DHT22;10246;50.620;7.232;2023-01-29T16:34:29;3.70;1.00